Collegedale, TN (37315)

6:09 PM EDT on August 29, 2016 (GMT -0400)
Southern Adventist University | | Change Station

Elev 843 ft 35.04 °N, 85.05 °W | Updated 3 minutes ago

Partly Cloudy
Partly Cloudy
90.9 °F
Feels Like 97 °F
N
1.0
Wind Variable Wind from NW
Gusts 4.0 mph

Today
High -- | Low -- °F
--% Chance of Precip.
Yesterday
High -- | Low -- °F
Precip. -- in
Pressure 30.04 in
Visibility 10.0 miles
Clouds Few 6000 ft
Few 25000 ft
Heat Index 97 °F
Dew Point 71 °F
Humidity 52%
Rainfall 0.00 in
Snow Depth Not available.
7:11 AM 8:10 PM
Waning Crescent, 6% visible
METAR KCHA 292153Z 05006KT 10SM FEW060 FEW250 33/17 A3006 RMK AO2 SLP171 T03330172
Pressure 30.04 in
Visibility 10.0 miles
Clouds Few 6000 ft
Few 25000 ft
Heat Index 97 °F
Dew Point 71 °F
Humidity 52%
Rainfall 0.00 in
Snow Depth Not available.
7:11 AM 8:10 PM
Waning Crescent, 6% visible
METAR KCHA 292153Z 05006KT 10SM FEW060 FEW250 33/17 A3006 RMK AO2 SLP171 T03330172
Tropical Depression Nine was centered about 170 miles west-southwest of Key West, Florida, as of late Monday morning. The depression may struggle a bit in the southern Gulf of Mexico before finally making a Gulf Coast landfall later this week with soaking rain and gusty winds.

This latest system was designated a tropical depression Sunday after a Hurricane Hunter reconnaissance mission finally found a sufficiently organized low-pressure center with collocated shower and thunderstorm activity.

10-Day Weather Forecast

Almanac

Astronomy

Aug. 29, 2016 Rise Set
Actual Time
Civil Twilight
Nautical Twilight
Astronomical Twilight
Moon
Length of Visible Light
Length of Day
Tomorrow will be .
, % of the Moon is Illuminated

Today's Extremes

State Highs State Lows

Community

WunderPhotos

Upload Photos

1,935,690 photos uploaded!

WunderBlog® & News

Nearby

Air Quality

  Air Quality AQ Index Pollutant
Not available.

Snow Depth

Station Depth Elevation

Earthquake Activity

City Distance Mag. Time & Date
Minimum magnitude displayed is 2.5.

Coastal Water Temperatures

Place Temperature

Stations

Nearby Weather Stations

Station Location Temp. Windchill Dew Point Humidity Wind Precip. Elev Updated Type
                   

Watches & Warnings

There are currently no watches in effect.